Adventure of The Seas — C6SA3 — position and weather

sailwx.info

Track history (hours):
 
Tides and Currents Weather Stations Pressure Air Temp Water Temp Dewpoint Dewpoint Depression Visibility Wind Speed Wind Dir Waves Ship Positions

Adventure of The Seas

Operator: Royal Caribbean Cruises Ltd

Last reported at 2015-Jan-31 02:09 UTC. Time now 2015-Jan-31 08:29 UTC.
Position N 17°57' W 063°41'.

Type: Passenger vessel. MMSI: 311263000.

Date/timePositionNaut miles runAvg speedWind from/ knotsBaromVisibWave heightAir tempDewpointWater temp
2015-Jan-31 02:09N 17°57' W 063°41'5 8.8
2015-Jan-31 01:32N 17°58' W 063°36'9 8.5
2015-Jan-31 00:28N 17°59' W 063°26'8 8.4
2015-Jan-30 23:33N 17°59' W 063°18'9 8.5
2015-Jan-30 22:30N 17°59' W 063°09'6 2.8
2015-Jan-30 20:24N 18°01' W 063°03'0 0.0
2015-Jan-30 14:30N 18°01' W 063°03'0 0.0
2015-Jan-30 12:18N 18°01' W 063°03'0 0.2
2015-Jan-30 11:30N 18°00' W 063°03'6 5.7
2015-Jan-30 10:25N 17°56' W 062°58'79 3.3
2015-Jan-29 10:19N 17°02' W 061°58'1115.0
2015-Jan-29 09:33N 16°51' W 062°01'1514.6
2015-Jan-29 08:33N 16°37' W 062°03'1514.8
2015-Jan-29 07:33N 16°22' W 062°06'  
Track history (hours):
 
Tides and Currents Weather Stations Pressure Air Temp Water Temp Dewpoint Dewpoint Depression Visibility Wind Speed Wind Dir Waves Ship Positions

Adventure of The Seas

Operator: Royal Caribbean Cruises Ltd

Last reported at 2015-Jan-31 02:09 UTC. Time now 2015-Jan-31 08:29 UTC.
Position N 17°57' W 063°41'.

Type: Passenger vessel. MMSI: 311263000.

Date/timePositionNaut miles runAvg speedWind from/ knotsBaromVisibWave heightAir tempDewpointWater temp
2015-Jan-31 02:09N 17°57' W 063°41'5 8.8
2015-Jan-31 01:32N 17°58' W 063°36'9 8.5
2015-Jan-31 00:28N 17°59' W 063°26'8 8.4
2015-Jan-30 23:33N 17°59' W 063°18'9 8.5
2015-Jan-30 22:30N 17°59' W 063°09'6 2.8
2015-Jan-30 20:24N 18°01' W 063°03'0 0.0
2015-Jan-30 14:30N 18°01' W 063°03'0 0.0
2015-Jan-30 12:18N 18°01' W 063°03'0 0.2
2015-Jan-30 11:30N 18°00' W 063°03'6 5.7
2015-Jan-30 10:25N 17°56' W 062°58'79 3.3
2015-Jan-29 10:19N 17°02' W 061°58'1115.0
2015-Jan-29 09:33N 16°51' W 062°01'1514.6
2015-Jan-29 08:33N 16°37' W 062°03'1514.8
2015-Jan-29 07:33N 16°22' W 062°06'  

Dump ship's entire track history